createdAt,value
2023-08-03T00:01:09.721Z,2.67
2023-08-03T00:03:36.974Z,1.85
2023-08-03T00:06:04.256Z,1.98
2023-08-03T00:08:31.304Z,2.92
2023-08-03T00:10:58.322Z,2.03
2023-08-03T00:13:25.390Z,2.55
2023-08-03T00:15:52.448Z,1.60
2023-08-03T00:18:19.512Z,1.88
2023-08-03T00:20:49.110Z,1.80
2023-08-03T00:23:16.190Z,2.03
2023-08-03T00:25:43.157Z,2.03
2023-08-03T00:28:10.041Z,3.05
2023-08-03T00:30:37.118Z,1.13
2023-08-03T00:33:04.133Z,1.50
2023-08-03T00:35:31.167Z,1.17
2023-08-03T00:37:58.129Z,1.42
2023-08-03T00:40:25.249Z,1.52
2023-08-03T00:42:52.389Z,2.08
2023-08-03T00:45:19.385Z,1.73
2023-08-03T00:47:46.612Z,2.78
2023-08-03T00:50:13.674Z,1.92
2023-08-03T00:52:40.769Z,1.38
2023-08-03T00:55:08.185Z,1.42
2023-08-03T00:57:35.197Z,1.23
2023-08-03T01:00:02.570Z,1.17
2023-08-03T01:02:29.590Z,1.45
2023-08-03T01:04:56.889Z,1.58
2023-08-03T01:07:24.140Z,1.13
2023-08-03T01:09:51.705Z,1.30
2023-08-03T01:12:19.158Z,1.15
2023-08-03T01:14:46.424Z,1.20
2023-08-03T01:17:13.683Z,1.80
2023-08-03T01:19:40.830Z,1.40
2023-08-03T01:22:10.702Z,1.05
2023-08-03T01:24:37.640Z,1.38
2023-08-03T01:27:05.155Z,1.10
2023-08-03T01:29:34.688Z,0.95
2023-08-03T01:32:01.883Z,1.40
2023-08-03T01:34:29.514Z,1.20
2023-08-03T01:36:57.289Z,2.08
2023-08-03T01:39:26.012Z,1.27
2023-08-03T01:41:52.967Z,1.38
2023-08-03T01:44:31.299Z,1.48
2023-08-03T01:47:00.182Z,1.30
2023-08-03T01:49:29.451Z,2.28
2023-08-03T01:51:56.874Z,1.67
2023-08-03T01:54:23.983Z,2.20
2023-08-03T01:56:51.096Z,1.27
2023-08-03T01:59:18.083Z,1.20
2023-08-03T02:01:45.412Z,1.63
2023-08-03T02:04:12.728Z,1.38
2023-08-03T02:06:39.895Z,1.10
2023-08-03T02:09:07.150Z,1.45
2023-08-03T02:11:36.145Z,0.90
2023-08-03T02:14:04.217Z,0.70
2023-08-03T02:16:33.294Z,1.25
2023-08-03T02:19:00.482Z,0.80
2023-08-03T02:21:27.547Z,1.08
2023-08-03T02:23:54.894Z,1.30
2023-08-03T02:26:21.871Z,1.38
2023-08-03T02:28:48.892Z,1.10
2023-08-03T02:31:15.881Z,0.93
2023-08-03T02:33:43.247Z,1.00
2023-08-03T02:36:10.396Z,1.10
2023-08-03T02:38:37.390Z,1.00
2023-08-03T02:41:04.498Z,0.95
2023-08-03T02:43:31.522Z,1.08
2023-08-03T02:45:58.506Z,1.02
2023-08-03T02:48:25.694Z,0.82
2023-08-03T02:50:52.593Z,1.50
2023-08-03T02:53:19.636Z,0.80
2023-08-03T02:55:46.632Z,1.00
2023-08-03T02:58:13.674Z,0.98
2023-08-03T03:00:41.427Z,0.80
2023-08-03T03:03:08.528Z,1.05
2023-08-03T03:05:36.010Z,1.30
2023-08-03T03:08:02.999Z,1.23
2023-08-03T03:10:29.944Z,1.38
2023-08-03T03:12:56.976Z,1.23
2023-08-03T03:15:23.952Z,1.42
2023-08-03T03:17:50.990Z,1.40
2023-08-03T03:20:18.125Z,1.55
2023-08-03T03:22:45.139Z,1.67
2023-08-03T03:25:12.222Z,1.70
2023-08-03T03:27:39.200Z,1.85
2023-08-03T03:30:06.891Z,1.90
2023-08-03T03:32:33.987Z,1.58
2023-08-03T03:35:01.124Z,1.80
2023-08-03T03:37:28.058Z,1.65
2023-08-03T03:39:55.103Z,1.83
2023-08-03T03:42:22.066Z,1.75
2023-08-03T03:44:49.051Z,2.38
2023-08-03T03:47:16.136Z,1.80
2023-08-03T03:49:43.278Z,1.90
2023-08-03T03:52:10.714Z,1.90
2023-08-03T03:54:37.793Z,2.53
2023-08-03T03:57:05.054Z,3.20
2023-08-03T03:59:32.120Z,2.83
2023-08-03T04:01:59.067Z,2.20
2023-08-03T04:04:26.121Z,4.25
2023-08-03T04:06:53.266Z,2.67
2023-08-03T04:09:20.211Z,3.33
2023-08-03T04:11:47.476Z,3.20
2023-08-03T04:14:14.511Z,3.45
2023-08-03T04:16:41.535Z,3.08
2023-08-03T04:19:08.687Z,3.72
2023-08-03T04:21:35.687Z,3.85
2023-08-03T04:24:02.658Z,5.03
2023-08-03T04:26:29.615Z,5.50
2023-08-03T04:28:56.571Z,4.53
2023-08-03T04:31:23.722Z,5.43
2023-08-03T04:33:50.660Z,6.18
2023-08-03T04:36:17.760Z,4.50
2023-08-03T04:38:44.666Z,5.18
2023-08-03T04:41:11.740Z,4.53
2023-08-03T04:43:38.740Z,6.13
2023-08-03T04:46:06.156Z,5.15
2023-08-03T04:48:33.252Z,4.38
2023-08-03T04:51:00.384Z,4.63
2023-08-03T04:53:27.539Z,5.78
2023-08-03T04:55:54.698Z,5.75
2023-08-03T04:58:21.651Z,7.30
2023-08-03T05:00:48.895Z,4.72
2023-08-03T05:03:16.167Z,5.60
2023-08-03T05:05:43.142Z,4.47
2023-08-03T05:08:10.075Z,4.50
2023-08-03T05:10:38.005Z,4.90
2023-08-03T05:13:05.640Z,3.70
2023-08-03T05:15:32.723Z,4.95
2023-08-03T05:18:02.445Z,4.18
2023-08-03T05:20:29.518Z,4.55
2023-08-03T05:22:56.708Z,4.75
2023-08-03T05:25:23.672Z,5.15
2023-08-03T05:27:50.651Z,5.00
2023-08-03T05:30:19.987Z,6.75
2023-08-03T05:32:47.451Z,6.57
2023-08-03T05:35:15.934Z,4.35
2023-08-03T05:37:42.937Z,6.03
2023-08-03T05:40:10.501Z,5.57
2023-08-03T05:42:39.452Z,5.35
2023-08-03T05:45:15.694Z,4.80
2023-08-03T05:47:42.904Z,5.00
2023-08-03T05:50:17.251Z,5.82
2023-08-03T05:52:44.199Z,4.55
2023-08-03T05:55:14.564Z,5.40
2023-08-03T05:57:41.603Z,5.05
2023-08-03T06:00:16.173Z,4.25
2023-08-03T06:02:45.663Z,3.85
2023-08-03T06:05:37.019Z,3.97
2023-08-03T06:08:24.412Z,4.30
2023-08-03T06:10:56.200Z,4.32
2023-08-03T06:13:28.597Z,3.80
2023-08-03T06:15:55.676Z,3.70
2023-08-03T06:18:23.015Z,3.50
2023-08-03T06:20:53.783Z,3.75
2023-08-03T06:23:28.372Z,3.92
2023-08-03T06:25:56.996Z,3.28
2023-08-03T06:28:24.751Z,3.60
2023-08-03T06:30:53.401Z,3.35
2023-08-03T06:33:24.643Z,3.40
2023-08-03T06:35:55.763Z,3.33
2023-08-03T06:38:23.668Z,3.88
2023-08-03T06:40:51.664Z,3.38
2023-08-03T06:43:18.982Z,3.05
2023-08-03T06:45:46.515Z,3.63
2023-08-03T06:48:16.001Z,3.15
2023-08-03T06:50:43.690Z,2.72
2023-08-03T06:53:12.154Z,2.38
2023-08-03T06:55:39.098Z,2.50
2023-08-03T06:58:06.034Z,2.75
2023-08-03T07:00:33.132Z,3.05
2023-08-03T07:03:00.627Z,2.47
2023-08-03T07:05:27.691Z,2.28
2023-08-03T07:07:54.656Z,2.70
2023-08-03T07:10:21.843Z,2.70
2023-08-03T07:12:48.782Z,1.88
2023-08-03T07:15:16.532Z,1.80
2023-08-03T07:17:43.601Z,1.83
2023-08-03T07:20:11.527Z,1.70
2023-08-03T07:22:38.832Z,1.55
2023-08-03T07:25:06.617Z,1.13
2023-08-03T07:27:33.857Z,1.25
2023-08-03T07:30:00.822Z,1.10
2023-08-03T07:32:27.856Z,2.05
2023-08-03T07:34:54.920Z,1.35
2023-08-03T07:37:21.909Z,1.40
2023-08-03T07:39:48.844Z,1.45
2023-08-03T07:42:15.929Z,0.90
2023-08-03T07:47:12.836Z,1.00
2023-08-03T07:49:39.777Z,0.65
2023-08-03T07:52:07.382Z,0.90
2023-08-03T07:54:34.577Z,1.10
2023-08-03T07:57:01.565Z,1.65
2023-08-03T07:59:28.761Z,1.52
2023-08-03T08:01:55.969Z,1.00
2023-08-03T08:04:23.221Z,0.90
2023-08-03T08:06:50.184Z,1.13
2023-08-03T08:09:17.220Z,1.10
2023-08-03T08:11:44.564Z,0.95
2023-08-03T08:14:11.905Z,0.90
2023-08-03T08:16:39.650Z,0.95
2023-08-03T08:19:06.862Z,0.90
2023-08-03T08:21:34.075Z,0.90
2023-08-03T08:24:01.235Z,2.22
2023-08-03T08:26:30.097Z,0.80
2023-08-03T08:29:04.199Z,2.85
2023-08-03T08:31:52.704Z,0.93
2023-08-03T08:34:20.366Z,3.88
2023-08-03T08:36:47.533Z,0.95
2023-08-03T08:39:14.666Z,1.48
2023-08-03T08:41:42.741Z,1.75
2023-08-03T08:44:14.878Z,1.10
2023-08-03T08:46:45.292Z,0.90
2023-08-03T08:49:40.084Z,2.88
2023-08-03T08:52:03.849Z,1.55
2023-08-03T08:57:10.990Z,0.73
2023-08-03T09:00:01.175Z,0.95
2023-08-03T09:02:28.402Z,1.67
2023-08-03T09:04:55.719Z,4.28
2023-08-03T09:07:22.855Z,1.25
2023-08-03T09:09:50.306Z,1.08
2023-08-03T09:12:27.274Z,1.48
2023-08-03T09:14:56.612Z,0.75
2023-08-03T09:17:24.609Z,0.85
2023-08-03T09:25:02.591Z,1.00
2023-08-03T13:23:33.559Z,1.80
2023-08-03T13:26:01.701Z,1.85
2023-08-03T13:28:28.767Z,1.98
2023-08-03T13:30:56.656Z,1.70
2023-08-03T13:33:23.664Z,3.08
2023-08-03T13:35:50.715Z,3.00
2023-08-03T13:38:22.570Z,1.83
2023-08-03T13:40:50.134Z,4.07
2023-08-03T13:43:17.304Z,2.83
2023-08-03T13:45:46.281Z,2.20
2023-08-03T13:48:13.753Z,3.53
2023-08-03T13:50:42.125Z,2.55
2023-08-03T13:53:09.456Z,1.85
2023-08-03T13:55:36.647Z,1.65
2023-08-03T13:58:06.399Z,3.88
2023-08-03T14:03:09.004Z,2.08
2023-08-03T14:08:06.944Z,2.63
2023-08-03T14:10:35.968Z,2.60
2023-08-03T14:13:03.605Z,4.13
2023-08-03T14:18:47.962Z,3.05
2023-08-03T14:23:21.250Z,2.53
2023-08-03T14:25:48.885Z,2.78
2023-08-03T14:30:47.569Z,3.05
2023-08-03T14:33:14.905Z,2.72
2023-08-03T14:35:41.986Z,3.53
2023-08-03T14:38:09.195Z,3.47
2023-08-03T14:40:36.621Z,4.43
2023-08-03T14:43:04.265Z,4.22
2023-08-03T14:48:04.655Z,4.75
2023-08-03T14:50:36.314Z,3.17
2023-08-03T14:53:03.568Z,2.47
2023-08-03T14:55:31.611Z,4.07
2023-08-03T14:57:58.759Z,4.30
2023-08-03T15:00:25.846Z,2.83
2023-08-03T15:02:53.116Z,3.20
2023-08-03T15:05:20.367Z,1.80
2023-08-03T15:07:48.006Z,1.88
2023-08-03T15:10:16.273Z,2.28
2023-08-03T15:12:43.249Z,2.28
2023-08-03T15:15:10.552Z,1.88
2023-08-03T15:17:38.853Z,1.80
2023-08-03T15:20:07.469Z,1.85
2023-08-03T15:22:35.611Z,2.65
2023-08-03T15:25:04.227Z,2.92
2023-08-03T15:27:33.979Z,3.50
2023-08-03T15:30:02.619Z,2.75
2023-08-03T15:33:18.710Z,4.88
2023-08-03T15:35:40.221Z,5.50
2023-08-03T15:38:08.185Z,3.90
2023-08-03T15:40:53.363Z,4.10
2023-08-03T15:43:25.786Z,3.60
2023-08-03T15:45:55.512Z,3.42
2023-08-03T15:50:56.109Z,3.40
2023-08-03T15:53:33.147Z,3.25
2023-08-03T15:56:05.295Z,3.00
2023-08-03T15:58:32.424Z,4.18
2023-08-03T16:01:04.404Z,4.65
2023-08-03T16:03:32.179Z,3.30
2023-08-03T16:06:14.096Z,4.03
2023-08-03T16:08:43.621Z,3.50
2023-08-03T16:11:11.463Z,4.20
2023-08-03T16:13:39.945Z,3.35
2023-08-03T16:16:08.101Z,4.15
2023-08-03T16:18:35.794Z,4.85
2023-08-03T16:21:07.350Z,3.75
2023-08-03T16:23:35.927Z,3.17
2023-08-03T16:26:12.389Z,5.32
2023-08-03T16:28:39.573Z,3.00
2023-08-03T16:31:17.575Z,4.63
2023-08-03T16:33:45.519Z,3.28
2023-08-03T16:36:14.830Z,4.05
2023-08-03T16:38:42.923Z,4.28
2023-08-03T16:41:11.209Z,3.28
2023-08-03T16:43:38.896Z,4.25
2023-08-03T16:46:06.053Z,3.53
2023-08-03T16:48:40.132Z,3.67
2023-08-03T16:51:08.196Z,4.15
2023-08-03T16:53:35.204Z,3.40
2023-08-03T16:56:02.181Z,4.30
2023-08-03T16:58:30.319Z,3.78
2023-08-03T17:00:57.517Z,3.50
2023-08-03T17:03:25.718Z,3.17
2023-08-03T17:05:56.514Z,3.53
2023-08-03T17:08:25.023Z,3.15
2023-08-03T17:10:52.403Z,4.45
2023-08-03T17:13:19.405Z,4.15
2023-08-03T17:15:46.732Z,3.50
2023-08-03T17:18:14.479Z,3.53
2023-08-03T17:20:41.824Z,3.97
2023-08-03T17:23:09.892Z,3.05
2023-08-03T17:25:37.160Z,2.28
2023-08-03T17:28:04.527Z,2.50
2023-08-03T17:30:31.796Z,6.10
2023-08-03T17:32:59.039Z,5.00
2023-08-03T17:35:30.101Z,2.75
2023-08-03T17:37:57.034Z,3.28
2023-08-03T17:40:24.196Z,4.68
2023-08-03T17:42:51.284Z,3.08
2023-08-03T17:45:18.335Z,3.60
2023-08-03T17:47:45.595Z,4.35
2023-08-03T17:50:12.768Z,2.50
2023-08-03T17:52:39.745Z,3.58
2023-08-03T17:55:08.510Z,2.10
2023-08-03T17:57:41.452Z,4.15
2023-08-03T18:00:09.456Z,3.85
2023-08-03T18:02:37.038Z,2.97
2023-08-03T18:05:05.265Z,3.80
2023-08-03T18:07:32.190Z,2.80
2023-08-03T18:10:01.617Z,3.08
2023-08-03T18:12:30.938Z,4.90
2023-08-03T18:14:58.244Z,3.15
2023-08-03T18:17:26.068Z,4.60
2023-08-03T18:19:55.132Z,2.22
2023-08-03T18:22:22.117Z,2.63
2023-08-03T18:24:49.490Z,2.63
2023-08-03T18:27:18.547Z,3.00
2023-08-03T18:29:45.760Z,2.35
2023-08-03T18:32:12.861Z,4.72
2023-08-03T18:34:40.170Z,3.15
2023-08-03T18:37:07.221Z,3.92
2023-08-03T18:39:34.300Z,3.75
2023-08-03T18:42:01.567Z,2.58
2023-08-03T18:44:28.595Z,3.55
2023-08-03T18:46:57.190Z,2.40
2023-08-03T18:49:24.201Z,3.30
2023-08-03T18:51:51.322Z,3.45
2023-08-03T18:54:18.616Z,3.72
2023-08-03T18:56:54.221Z,3.95
2023-08-03T18:59:21.875Z,3.90
2023-08-03T19:01:49.073Z,3.58
2023-08-03T19:04:16.226Z,2.67
2023-08-03T19:06:43.316Z,2.97
2023-08-03T19:09:10.511Z,2.25
2023-08-03T19:11:37.640Z,2.85
2023-08-03T19:14:04.634Z,2.45
2023-08-03T19:19:03.870Z,4.78
2023-08-03T19:21:30.859Z,5.22
2023-08-03T19:23:57.777Z,3.70
2023-08-03T19:26:24.846Z,2.63
2023-08-03T19:28:51.814Z,3.85
2023-08-03T19:31:19.126Z,2.05
2023-08-03T19:33:46.277Z,2.75
2023-08-03T19:36:14.915Z,3.40
2023-08-03T19:38:42.010Z,3.67
2023-08-03T19:41:08.995Z,2.78
2023-08-03T19:43:36.002Z,3.67
2023-08-03T19:46:08.791Z,2.30
2023-08-03T19:48:35.770Z,2.38
2023-08-03T20:11:06.620Z,3.30
2023-08-03T20:13:34.228Z,4.50
2023-08-03T20:16:01.244Z,3.28
2023-08-03T20:18:28.313Z,3.55
2023-08-03T20:20:55.846Z,3.33
2023-08-03T20:23:22.841Z,3.45
2023-08-03T20:25:49.854Z,3.47
2023-08-03T20:28:25.844Z,2.72
2023-08-03T20:30:53.290Z,3.45
2023-08-03T20:41:06.280Z,3.85
2023-08-03T20:43:37.064Z,3.72
2023-08-03T20:46:07.308Z,3.30
2023-08-03T20:48:36.424Z,2.92
2023-08-03T20:51:04.672Z,2.97
2023-08-03T20:53:33.899Z,4.97
2023-08-03T20:56:01.599Z,2.67
2023-08-03T20:58:33.197Z,2.63
2023-08-03T21:01:01.218Z,2.83
2023-08-03T21:03:28.270Z,3.78
2023-08-03T21:05:55.795Z,2.65
2023-08-03T21:08:23.197Z,2.95
2023-08-03T21:10:51.366Z,3.40
2023-08-03T21:13:18.924Z,3.67
2023-08-03T21:15:47.789Z,3.15
2023-08-03T21:20:45.219Z,5.05
2023-08-03T21:23:12.196Z,2.80
2023-08-03T21:25:39.287Z,2.60
2023-08-03T21:28:06.708Z,2.55
2023-08-03T21:30:34.306Z,4.25
2023-08-03T21:33:01.850Z,2.65
2023-08-03T21:35:29.319Z,3.53
2023-08-03T21:37:58.368Z,4.18
2023-08-03T21:40:25.861Z,2.45
2023-08-03T21:42:53.236Z,4.78
2023-08-03T21:45:20.627Z,3.08
2023-08-03T21:47:47.921Z,3.03
2023-08-03T21:50:16.050Z,3.05
2023-08-03T21:52:43.308Z,4.35
2023-08-03T21:55:10.975Z,2.28
2023-08-03T21:57:38.157Z,3.25
2023-08-03T22:00:06.116Z,4.55
2023-08-03T22:02:33.374Z,2.28
2023-08-03T22:05:00.355Z,2.47
2023-08-03T22:07:27.507Z,2.30
2023-08-03T22:09:54.751Z,3.53
2023-08-03T22:12:21.920Z,2.20
2023-08-03T22:14:48.955Z,2.90
2023-08-03T22:17:16.127Z,2.60
2023-08-03T22:19:43.328Z,4.05
2023-08-03T22:22:10.411Z,3.13
2023-08-03T22:24:37.454Z,2.22
2023-08-03T22:27:04.641Z,2.20
2023-08-03T22:29:31.717Z,2.08
2023-08-03T22:31:58.815Z,2.38
2023-08-03T22:34:25.858Z,2.83
2023-08-03T22:36:52.848Z,2.85
2023-08-03T22:39:19.945Z,3.75
2023-08-03T22:41:47.194Z,3.58
2023-08-03T22:44:15.165Z,2.65
2023-08-03T22:46:42.150Z,2.85
2023-08-03T22:49:09.326Z,3.58
2023-08-03T22:51:36.352Z,2.10
2023-08-03T22:54:03.486Z,4.47
2023-08-03T22:56:30.667Z,2.53
2023-08-03T22:58:57.822Z,1.85
2023-08-03T23:01:24.977Z,1.98
2023-08-03T23:03:52.742Z,2.40
2023-08-03T23:06:21.792Z,2.55
2023-08-03T23:08:50.265Z,3.45
2023-08-03T23:11:17.863Z,2.05
2023-08-03T23:13:45.298Z,1.98
2023-08-03T23:16:20.227Z,3.10
2023-08-03T23:18:48.450Z,2.70
2023-08-03T23:21:15.607Z,2.58
2023-08-03T23:23:42.931Z,2.65
2023-08-03T23:26:18.245Z,2.00
2023-08-03T23:28:45.937Z,2.15
2023-08-03T23:31:13.605Z,4.32
2023-08-03T23:33:40.980Z,3.03
2023-08-03T23:36:08.399Z,2.40
2023-08-03T23:38:35.596Z,3.22
2023-08-03T23:41:02.805Z,3.80
2023-08-03T23:43:29.859Z,2.28
2023-08-03T23:45:57.173Z,2.30
2023-08-03T23:48:24.300Z,4.40
2023-08-03T23:50:51.429Z,2.42
2023-08-03T23:53:18.422Z,2.72
2023-08-03T23:55:45.486Z,2.40
2023-08-03T23:58:12.562Z,2.90
